עמוד ראשי
METAR-TAF:

METAR-TAF

שדות תעופה :

Kapolei, הוואי, ארצות הברית

קו רוחב: 21-18-30N, קו אורך: 158-04-05W, גובה: 10מטר

תצפית מזג אוויר נוכחית

הדו"ח נערך לפני 37דקות, בשעה 09:53 UTC
רוח 4קשר מכיוון מזרח
טמפרטורת 23 צלסיוס
לחות 78%
לחץ 1019 hPa
ראות: 16.1קילומטר
עננים בינוניים בגובה 5500רגל

METAR: PHJR 150953Z AUTO 08004KT 10SM BKN055 23/19 A3010 RMK AO2 SLP200 T02280189 402940183 TSNO

זמן: 00:30 (10:30 UTC)

תחזית

הדו"ח נערך לפני 5 שעות ו 1דקות, בשעה 05:29 UTC
תחזית בתוקף מ 15 ב 06 UTC עד 16 ב 06 UTC
רוח 7קשר מכיוון מזרח/צפון-מזרח
ראות: 10קילומטר
מעט עננים בגובה 4500רגל
מ 15 ב 2000UTC
רוח 11קשר מכיוון מזרח עם משבים עד 21קשר
ראות: 10קילומטר
מעט עננים בגובה 4500רגל

TAF: PHJR 150529Z 1506/1606 06007KT P6SM FEW045 FM152000 08011G21KT P6SM FEW045

תצפיות ותחזיות מזג אוויר לגבי יותר מ- 4,000 שדות תעופה ברחבי העולם. דוחות METAR ו- TAF.

התחנות הזמינות מסומנות בנקודות צהובות ואדומות על גבי המפה.

העבר את העכבר לנקודה הצבעונית על מנת לראות את שם התחנה.

לאחר מכן, לחץ כדי לראות את תוכן ואת תחזיות מזג האוויר.

כדי לשנות את המפה: לחץ על הכפתורים הירוקים עם הפלוס השחור כדי להתקרב; על הכפתור הירוק עם המקף כדי להתרחק; או בחיצים הירוקים למפות סמוכות.


METAR-TAF: